Time;durP1;ratioP1;P1;durP2;ratioP2;P2;SDS_P1;SDS_P2;PMS_P1;PMS_P2;Temp;Humidity;BMP_temperature;BMP_pressure;BME280_temperature;BME280_humidity;BME280_pressure;Samples;Min_cycle;Max_cycle;Signal;HPM_P1;HPM_P2
2024/04/17 00:01:26;;;;;;;1.23;0.60;;;;;;;;;;5298475;26;20183;-52
2024/04/17 00:03:55;;;;;;;2.65;0.93;;;;;;;;;;5265566;26;20125;-53
2024/04/17 00:06:23;;;;;;;2.40;0.90;;;;;;;;;;5326998;26;20156;-49
2024/04/17 00:08:51;;;;;;;2.00;0.80;;;;;;;;;;5295784;26;20152;-51
2024/04/17 00:11:17;;;;;;;2.70;0.65;;;;;;;;;;5291546;26;20217;-51
2024/04/17 00:13:43;;;;;;;2.38;0.70;;;;;;;;;;5312850;26;20187;-51
2024/04/17 00:16:12;;;;;;;2.38;0.70;;;;;;;;;;5286617;26;20628;-51
2024/04/17 00:18:45;;;;;;;2.05;0.90;;;;;;;;;;5296007;26;20175;-51
2024/04/17 00:21:12;;;;;;;2.07;0.73;;;;;;;;;;5273279;26;20576;-50
2024/04/17 00:23:43;;;;;;;1.60;0.70;;;;;;;;;;5290380;26;20464;-50
2024/04/17 00:26:10;;;;;;;2.13;0.60;;;;;;;;;;5290756;26;20151;-51
2024/04/17 00:28:37;;;;;;;1.38;0.65;;;;;;;;;;5289094;26;20208;-51
2024/04/17 00:31:06;;;;;;;2.35;0.80;;;;;;;;;;5280871;26;20145;-51
2024/04/17 00:33:36;;;;;;;1.58;0.70;;;;;;;;;;5305214;26;20463;-50
2024/04/17 00:36:08;;;;;;;2.03;0.80;;;;;;;;;;5286407;26;20144;-52
2024/04/17 00:38:44;;;;;;;2.85;0.90;;;;;;;;;;5341914;26;20147;-50
2024/04/17 00:41:12;;;;;;;2.63;0.80;;;;;;;;;;5288842;26;20163;-51
2024/04/17 00:43:48;;;;;;;1.85;0.80;;;;;;;;;;5290568;26;20180;-49
2024/04/17 00:46:18;;;;;;;1.67;0.70;;;;;;;;;;5323372;26;20199;-50
2024/04/17 00:48:53;;;;;;;1.83;0.68;;;;;;;;;;5293562;26;20606;-49
2024/04/17 00:51:42;;;;;;;1.83;0.77;;;;;;;;;;5286229;26;20279;-51
2024/04/17 00:54:20;;;;;;;1.13;0.50;;;;;;;;;;5311363;26;20162;-50
2024/04/17 00:57:05;;;;;;;3.15;0.70;;;;;;;;;;5292355;26;20176;-51
2024/04/17 00:59:35;;;;;;;2.45;0.70;;;;;;;;;;5284507;26;20238;-50
2024/04/17 01:02:03;;;;;;;1.40;0.80;;;;;;;;;;5293940;26;20254;-56
2024/04/17 01:04:33;;;;;;;1.95;0.80;;;;;;;;;;5296741;26;20144;-57
2024/04/17 01:07:04;;;;;;;2.63;1.05;;;;;;;;;;5316664;26;20136;-57
2024/04/17 01:09:31;;;;;;;0.65;0.50;;;;;;;;;;5291021;26;20147;-56
2024/04/17 01:11:57;;;;;;;3.40;0.70;;;;;;;;;;5290346;26;20148;-56
2024/04/17 01:14:31;;;;;;;1.92;0.70;;;;;;;;;;5311156;26;20155;-52
2024/04/17 01:17:00;;;;;;;1.17;0.65;;;;;;;;;;5271249;26;20206;-51
2024/04/17 01:19:33;;;;;;;2.17;0.80;;;;;;;;;;5269542;26;20133;-51
2024/04/17 01:22:01;;;;;;;1.70;0.70;;;;;;;;;;5324849;26;20197;-50
2024/04/17 01:24:29;;;;;;;1.85;0.57;;;;;;;;;;5291391;26;20806;-52
2024/04/17 01:26:57;;;;;;;1.23;0.60;;;;;;;;;;5316893;26;20142;-52
2024/04/17 01:29:31;;;;;;;1.20;0.70;;;;;;;;;;5325801;26;20209;-54
2024/04/17 01:32:05;;;;;;;3.10;0.85;;;;;;;;;;5267476;26;20140;-53
2024/04/17 01:34:33;;;;;;;1.23;0.50;;;;;;;;;;5296333;26;20189;-52
2024/04/17 01:37:00;;;;;;;0.98;0.52;;;;;;;;;;5294856;26;20234;-52
2024/04/17 01:39:28;;;;;;;1.58;0.70;;;;;;;;;;5294640;26;20180;-51
2024/04/17 01:41:56;;;;;;;1.00;0.60;;;;;;;;;;5324956;26;20136;-51
2024/04/17 01:44:23;;;;;;;1.27;0.60;;;;;;;;;;5296623;26;20144;-53
2024/04/17 01:46:49;;;;;;;2.45;0.73;;;;;;;;;;5288268;26;20484;-52
2024/04/17 01:49:25;;;;;;;1.92;0.70;;;;;;;;;;5290900;26;20440;-53
2024/04/17 01:51:59;;;;;;;1.73;0.75;;;;;;;;;;5290898;26;20159;-51
2024/04/17 01:54:31;;;;;;;1.42;0.65;;;;;;;;;;5286275;26;20156;-52
2024/04/17 01:57:35;;;;;;;1.60;0.60;;;;;;;;;;5316053;26;20136;-50
2024/04/17 02:00:09;;;;;;;1.70;0.60;;;;;;;;;;5310193;26;20140;-51
2024/04/17 02:02:45;;;;;;;2.13;0.70;;;;;;;;;;5317503;26;20812;-51
2024/04/17 02:05:13;;;;;;;1.17;0.70;;;;;;;;;;5323633;26;20151;-49
2024/04/17 02:07:55;;;;;;;2.10;0.70;;;;;;;;;;5279118;26;20125;-51
2024/04/17 02:10:27;;;;;;;0.87;0.50;;;;;;;;;;5313511;26;20943;-51
2024/04/17 02:13:03;;;;;;;2.00;0.70;;;;;;;;;;5293652;26;20146;-50
2024/04/17 02:15:33;;;;;;;3.13;0.70;;;;;;;;;;5289414;26;20157;-52
2024/04/17 02:18:15;;;;;;;2.10;1.10;;;;;;;;;;5316851;26;20168;-52
2024/04/17 02:20:50;;;;;;;0.95;0.55;;;;;;;;;;5312987;26;20241;-51
2024/04/17 02:23:17;;;;;;;1.48;0.63;;;;;;;;;;5293871;26;20144;-51
2024/04/17 02:25:45;;;;;;;1.33;0.65;;;;;;;;;;5295986;26;20151;-52
2024/04/17 02:28:15;;;;;;;1.80;0.73;;;;;;;;;;5288725;26;20181;-51
2024/04/17 02:30:43;;;;;;;1.20;0.60;;;;;;;;;;5263135;26;20129;-52
2024/04/17 02:33:17;;;;;;;1.33;0.60;;;;;;;;;;5324941;26;20139;-51
2024/04/17 02:35:47;;;;;;;1.35;0.60;;;;;;;;;;5291162;26;20140;-51
2024/04/17 02:38:18;;;;;;;1.70;0.60;;;;;;;;;;5296000;26;20155;-51
2024/04/17 02:40:45;;;;;;;1.45;0.65;;;;;;;;;;5319071;26;20148;-52
2024/04/17 02:43:18;;;;;;;1.33;0.47;;;;;;;;;;5295001;26;20136;-52
2024/04/17 02:45:50;;;;;;;0.77;0.50;;;;;;;;;;5298623;26;20445;-51
2024/04/17 02:48:18;;;;;;;1.55;0.52;;;;;;;;;;5320046;26;20135;-52
2024/04/17 02:50:47;;;;;;;3.30;0.75;;;;;;;;;;5294859;26;20180;-50
2024/04/17 02:53:18;;;;;;;0.85;0.50;;;;;;;;;;5293936;26;20140;-50
2024/04/17 02:55:52;;;;;;;1.38;0.70;;;;;;;;;;5286428;26;20202;-51
2024/04/17 02:58:24;;;;;;;0.93;0.57;;;;;;;;;;5288693;26;20147;-52
2024/04/17 03:01:01;;;;;;;0.90;0.50;;;;;;;;;;5311948;26;20145;-51
2024/04/17 03:03:28;;;;;;;0.70;0.50;;;;;;;;;;5315750;26;20144;-52
2024/04/17 03:05:56;;;;;;;1.38;0.63;;;;;;;;;;5338780;26;20186;-49
2024/04/17 03:08:22;;;;;;;1.13;0.60;;;;;;;;;;5291364;26;20153;-51
2024/04/17 03:11:06;;;;;;;1.65;0.60;;;;;;;;;;5323932;26;20439;-51
2024/04/17 03:13:34;;;;;;;1.08;0.50;;;;;;;;;;5227618;26;20823;-52
2024/04/17 03:16:03;;;;;;;1.65;0.63;;;;;;;;;;5198765;26;20472;-51
2024/04/17 03:18:50;;;;;;;1.00;0.50;;;;;;;;;;5218679;26;20145;-52
2024/04/17 03:21:26;;;;;;;2.70;0.75;;;;;;;;;;5196208;26;20156;-51
2024/04/17 03:23:55;;;;;;;1.35;0.50;;;;;;;;;;5191492;26;20126;-50
2024/04/17 03:26:24;;;;;;;1.27;0.65;;;;;;;;;;5193467;26;20548;-50
2024/04/17 03:28:53;;;;;;;1.25;0.50;;;;;;;;;;5217050;26;20161;-48
2024/04/17 03:31:22;;;;;;;1.13;0.60;;;;;;;;;;5209430;26;20158;-53
2024/04/17 03:33:49;;;;;;;2.20;0.60;;;;;;;;;;5202427;26;20480;-52
2024/04/17 03:36:18;;;;;;;0.77;0.50;;;;;;;;;;5196547;26;20149;-51
2024/04/17 03:38:48;;;;;;;1.48;0.60;;;;;;;;;;5225193;26;20138;-51
2024/04/17 03:41:16;;;;;;;1.90;0.77;;;;;;;;;;5218964;26;20827;-51
2024/04/17 03:43:47;;;;;;;0.47;0.30;;;;;;;;;;5223574;26;20137;-51
2024/04/17 03:46:15;;;;;;;1.23;0.52;;;;;;;;;;5309678;26;20517;-52
2024/04/17 03:48:53;;;;;;;0.57;0.35;;;;;;;;;;5294011;26;20136;-52
2024/04/17 03:51:23;;;;;;;1.52;0.40;;;;;;;;;;5295841;26;20133;-52
2024/04/17 03:53:53;;;;;;;0.40;0.40;;;;;;;;;;5283519;26;20257;-51
2024/04/17 03:56:19;;;;;;;1.83;0.60;;;;;;;;;;5289434;26;20130;-50
2024/04/17 03:58:56;;;;;;;2.13;0.57;;;;;;;;;;5294266;26;20193;-52
2024/04/17 04:01:23;;;;;;;1.15;0.50;;;;;;;;;;5324503;26;20144;-51
2024/04/17 04:03:50;;;;;;;1.25;0.60;;;;;;;;;;5291726;26;20178;-53
2024/04/17 04:06:21;;;;;;;1.13;0.40;;;;;;;;;;5296982;26;20165;-52
2024/04/17 04:08:49;;;;;;;1.08;0.50;;;;;;;;;;5291373;26;20125;-50
2024/04/17 04:11:25;;;;;;;1.30;0.60;;;;;;;;;;5324502;26;20160;-52
2024/04/17 04:13:52;;;;;;;1.20;0.60;;;;;;;;;;5297346;26;20209;-50
2024/04/17 04:16:28;;;;;;;2.15;0.57;;;;;;;;;;5314953;26;20154;-51
2024/04/17 04:18:58;;;;;;;2.33;0.50;;;;;;;;;;5278205;26;20471;-52
2024/04/17 04:21:27;;;;;;;1.05;0.55;;;;;;;;;;5294676;26;20150;-51
2024/04/17 04:23:55;;;;;;;1.30;0.70;;;;;;;;;;5322329;26;20159;-52
2024/04/17 04:26:25;;;;;;;0.70;0.50;;;;;;;;;;5295978;26;20186;-51
2024/04/17 04:28:56;;;;;;;0.65;0.45;;;;;;;;;;5292107;26;20714;-52
2024/04/17 04:31:26;;;;;;;0.57;0.40;;;;;;;;;;5314179;26;20169;-50
2024/04/17 04:33:54;;;;;;;0.57;0.40;;;;;;;;;;5289854;26;20137;-50
2024/04/17 04:36:30;;;;;;;1.55;0.63;;;;;;;;;;5292168;26;20295;-52
2024/04/17 04:39:01;;;;;;;0.75;0.43;;;;;;;;;;5255174;26;20143;-53
2024/04/17 04:41:28;;;;;;;0.75;0.47;;;;;;;;;;5286285;26;20180;-52
2024/04/17 04:43:57;;;;;;;0.98;0.50;;;;;;;;;;5296061;26;20243;-51
2024/04/17 04:46:28;;;;;;;1.23;0.60;;;;;;;;;;5290987;26;20215;-52
2024/04/17 04:49:03;;;;;;;1.42;0.52;;;;;;;;;;5319784;26;20170;-52
2024/04/17 04:51:32;;;;;;;1.27;0.50;;;;;;;;;;5322724;26;20152;-51
2024/04/17 04:54:01;;;;;;;0.98;0.50;;;;;;;;;;5291125;26;20445;-52
2024/04/17 04:56:29;;;;;;;0.85;0.60;;;;;;;;;;5285625;26;20141;-51
2024/04/17 04:59:00;;;;;;;0.95;0.45;;;;;;;;;;5292856;26;20136;-54
2024/04/17 05:01:37;;;;;;;0.52;0.40;;;;;;;;;;5292102;26;20463;-52
2024/04/17 05:04:04;;;;;;;0.82;0.50;;;;;;;;;;5289610;26;20201;-52
2024/04/17 05:06:34;;;;;;;0.60;0.47;;;;;;;;;;5294188;26;20124;-51
2024/04/17 05:09:15;;;;;;;1.67;0.50;;;;;;;;;;5295059;26;20182;-52
2024/04/17 05:11:42;;;;;;;1.88;0.60;;;;;;;;;;5290070;26;20565;-51
2024/04/17 05:14:08;;;;;;;0.73;0.35;;;;;;;;;;5294234;26;20212;-51
2024/04/17 05:16:47;;;;;;;1.20;0.50;;;;;;;;;;5259612;26;20127;-52
2024/04/17 05:19:18;;;;;;;0.93;0.63;;;;;;;;;;5288450;26;20133;-51
2024/04/17 05:21:44;;;;;;;1.27;0.50;;;;;;;;;;5323618;26;20138;-52
2024/04/17 05:24:12;;;;;;;0.55;0.40;;;;;;;;;;5294318;26;20168;-52
2024/04/17 05:26:43;;;;;;;0.50;0.30;;;;;;;;;;5312999;26;20156;-51
2024/04/17 05:29:11;;;;;;;0.85;0.50;;;;;;;;;;5291766;26;20554;-51
2024/04/17 05:31:39;;;;;;;0.55;0.40;;;;;;;;;;5291463;26;20575;-50
2024/04/17 05:34:09;;;;;;;1.27;0.60;;;;;;;;;;5295575;26;20158;-51
2024/04/17 05:36:37;;;;;;;0.57;0.40;;;;;;;;;;5300493;26;20169;-51
2024/04/17 05:39:06;;;;;;;0.65;0.40;;;;;;;;;;5325941;26;20494;-53
2024/04/17 05:41:44;;;;;;;0.60;0.40;;;;;;;;;;5330431;26;20143;-52
2024/04/17 05:44:13;;;;;;;0.57;0.50;;;;;;;;;;5308661;26;20151;-52
2024/04/17 05:46:41;;;;;;;1.23;0.50;;;;;;;;;;5287378;26;20645;-51
2024/04/17 05:49:09;;;;;;;1.40;0.60;;;;;;;;;;5322477;26;20148;-51
2024/04/17 05:51:37;;;;;;;0.70;0.40;;;;;;;;;;5291406;26;20129;-53
2024/04/17 05:54:05;;;;;;;0.30;0.30;;;;;;;;;;5296863;26;20188;-52
2024/04/17 05:56:34;;;;;;;1.23;0.50;;;;;;;;;;5324284;26;20533;-52
2024/04/17 05:59:00;;;;;;;1.08;0.50;;;;;;;;;;5284235;26;20164;-52
2024/04/17 06:01:28;;;;;;;0.40;0.40;;;;;;;;;;5299709;26;20141;-51
2024/04/17 06:03:57;;;;;;;1.05;0.55;;;;;;;;;;5292730;26;20161;-52
2024/04/17 06:06:23;;;;;;;1.00;0.52;;;;;;;;;;5298236;26;20129;-57
2024/04/17 06:08:49;;;;;;;0.75;0.50;;;;;;;;;;5294068;26;20159;-58
2024/04/17 06:11:24;;;;;;;1.27;0.65;;;;;;;;;;5329036;26;20144;-57
2024/04/17 06:13:52;;;;;;;1.48;0.55;;;;;;;;;;5300011;26;20165;-57
2024/04/17 06:16:21;;;;;;;0.50;0.40;;;;;;;;;;5290846;26;20152;-56
2024/04/17 06:18:50;;;;;;;0.82;0.43;;;;;;;;;;5324757;26;20488;-57
2024/04/17 06:21:18;;;;;;;0.43;0.40;;;;;;;;;;5297415;26;20536;-57
2024/04/17 06:23:47;;;;;;;1.00;0.50;;;;;;;;;;5291912;26;20167;-57
2024/04/17 06:26:44;;;;;;;0.90;0.50;;;;;;;;;;5288593;26;20151;-56
2024/04/17 06:29:10;;;;;;;0.40;0.40;;;;;;;;;;5309203;26;20164;-56
2024/04/17 06:31:37;;;;;;;1.02;0.47;;;;;;;;;;5296055;26;20167;-57
2024/04/17 06:34:03;;;;;;;0.52;0.40;;;;;;;;;;5283820;26;20174;-57
2024/04/17 06:36:33;;;;;;;1.38;0.60;;;;;;;;;;5297196;26;20490;-57
2024/04/17 06:39:01;;;;;;;1.00;0.40;;;;;;;;;;5328463;26;20228;-57
2024/04/17 06:41:27;;;;;;;0.65;0.43;;;;;;;;;;5307917;26;20130;-57
2024/04/17 06:43:58;;;;;;;0.95;0.50;;;;;;;;;;5295759;26;20144;-57
2024/04/17 06:46:28;;;;;;;1.42;0.60;;;;;;;;;;5293618;26;20478;-57
2024/04/17 06:48:57;;;;;;;1.27;0.50;;;;;;;;;;5296137;26;20231;-57
2024/04/17 06:51:24;;;;;;;1.40;0.43;;;;;;;;;;5296950;26;20203;-57
2024/04/17 06:53:59;;;;;;;0.55;0.40;;;;;;;;;;5295358;26;20144;-57
2024/04/17 06:56:28;;;;;;;1.08;0.50;;;;;;;;;;5295859;26;20164;-57
2024/04/17 06:59:57;;;;;;;0.43;0.30;;;;;;;;;;5286371;26;20144;-57
2024/04/17 07:02:27;;;;;;;2.45;0.50;;;;;;;;;;5318569;26;20208;-57
2024/04/17 07:04:55;;;;;;;0.88;0.60;;;;;;;;;;5289619;26;20156;-57
2024/04/17 07:07:24;;;;;;;0.88;0.40;;;;;;;;;;5286477;26;20471;-57
2024/04/17 07:09:56;;;;;;;0.60;0.40;;;;;;;;;;5290388;26;20160;-57
2024/04/17 07:12:25;;;;;;;0.40;0.40;;;;;;;;;;5290147;26;20516;-57
2024/04/17 07:14:51;;;;;;;0.98;0.50;;;;;;;;;;5297957;26;20197;-57
2024/04/17 07:17:21;;;;;;;1.48;0.60;;;;;;;;;;5297505;26;20130;-57
2024/04/17 07:19:50;;;;;;;3.30;0.68;;;;;;;;;;5299083;26;20463;-57
2024/04/17 07:22:21;;;;;;;0.60;0.40;;;;;;;;;;5287774;26;20140;-56
2024/04/17 07:24:49;;;;;;;3.08;0.60;;;;;;;;;;5269310;26;20190;-57
2024/04/17 07:27:30;;;;;;;1.20;0.50;;;;;;;;;;5292687;26;20220;-57
2024/04/17 07:30:01;;;;;;;3.03;0.60;;;;;;;;;;5296388;26;20139;-56
2024/04/17 07:32:27;;;;;;;1.23;0.70;;;;;;;;;;5294679;26;20513;-57
2024/04/17 07:34:57;;;;;;;8.48;0.60;;;;;;;;;;5291899;26;20162;-57
2024/04/17 07:37:25;;;;;;;2.15;0.80;;;;;;;;;;5313204;26;20466;-57
2024/04/17 07:39:55;;;;;;;2.70;0.82;;;;;;;;;;5297874;26;20138;-57
2024/04/17 07:42:23;;;;;;;2.58;0.57;;;;;;;;;;5296393;26;20478;-57
2024/04/17 07:45:03;;;;;;;2.40;1.00;;;;;;;;;;5290671;26;20152;-57
2024/04/17 07:47:33;;;;;;;3.50;0.88;;;;;;;;;;5316005;26;20266;-58
2024/04/17 07:50:01;;;;;;;4.22;0.70;;;;;;;;;;5297394;26;20175;-58
2024/04/17 07:52:30;;;;;;;3.97;0.88;;;;;;;;;;5296315;26;20140;-57
2024/04/17 07:54:57;;;;;;;5.05;1.00;;;;;;;;;;5297274;26;20176;-58
2024/04/17 07:57:26;;;;;;;2.78;0.90;;;;;;;;;;5292427;26;20160;-58
2024/04/17 07:59:59;;;;;;;3.33;1.00;;;;;;;;;;5295609;26;20218;-57
2024/04/17 08:02:33;;;;;;;2.35;1.00;;;;;;;;;;5298529;26;20188;-57
2024/04/17 08:05:03;;;;;;;2.05;0.80;;;;;;;;;;5321372;26;20163;-58
2024/04/17 08:07:30;;;;;;;1.55;0.70;;;;;;;;;;5327059;26;20235;-58
2024/04/17 08:10:00;;;;;;;2.15;0.75;;;;;;;;;;5297520;26;20587;-58
2024/04/17 08:12:30;;;;;;;4.40;1.05;;;;;;;;;;5296420;26;20476;-56
2024/04/17 08:14:58;;;;;;;4.00;0.93;;;;;;;;;;5296115;26;20155;-57
2024/04/17 08:17:28;;;;;;;5.78;1.33;;;;;;;;;;5292106;26;20218;-57
2024/04/17 08:23:37;;;;;;;8.20;0.98;;;;;;;;;;5319537;26;20227;-57
2024/04/17 08:26:03;;;;;;;3.60;0.90;;;;;;;;;;5284597;26;20144;-57
2024/04/17 08:28:45;;;;;;;8.10;0.85;;;;;;;;;;5286181;26;20164;-58
2024/04/17 08:31:16;;;;;;;7.13;1.00;;;;;;;;;;5287341;26;20201;-56
2024/04/17 08:33:52;;;;;;;2.75;0.80;;;;;;;;;;5284609;26;20145;-55
2024/04/17 08:36:22;;;;;;;3.65;0.70;;;;;;;;;;5311487;26;20130;-57
2024/04/17 08:38:51;;;;;;;4.63;0.80;;;;;;;;;;5304176;26;20474;-57
2024/04/17 08:41:19;;;;;;;1.92;0.68;;;;;;;;;;5306389;26;20210;-50
2024/04/17 08:43:47;;;;;;;2.28;0.70;;;;;;;;;;5285686;26;20204;-52
2024/04/17 08:46:17;;;;;;;2.78;0.73;;;;;;;;;;5277753;26;20151;-56
2024/04/17 08:48:47;;;;;;;2.17;0.77;;;;;;;;;;5312445;26;20461;-58
2024/04/17 08:51:17;;;;;;;1.85;0.47;;;;;;;;;;5281499;26;20204;-57
2024/04/17 08:53:50;;;;;;;2.35;1.00;;;;;;;;;;5278654;26;20272;-58
2024/04/17 08:56:17;;;;;;;3.72;0.73;;;;;;;;;;5317351;26;20178;-56
2024/04/17 08:58:48;;;;;;;4.50;0.60;;;;;;;;;;5256549;26;20126;-57
2024/04/17 09:01:21;;;;;;;2.13;0.80;;;;;;;;;;5283006;26;20639;-57
2024/04/17 09:03:50;;;;;;;1.92;0.80;;;;;;;;;;5297247;26;20129;-57
2024/04/17 09:06:18;;;;;;;3.22;0.73;;;;;;;;;;5292710;26;20220;-57
2024/04/17 09:08:47;;;;;;;2.90;0.70;;;;;;;;;;5290046;26;20221;-59
2024/04/17 09:11:14;;;;;;;1.52;0.60;;;;;;;;;;5289983;26;20151;-57
2024/04/17 09:13:42;;;;;;;1.30;0.50;;;;;;;;;;5284963;26;20140;-57
2024/04/17 09:16:13;;;;;;;2.97;0.90;;;;;;;;;;5284740;26;20166;-57
2024/04/17 09:18:41;;;;;;;1.98;0.70;;;;;;;;;;5318811;26;20143;-57
2024/04/17 09:21:11;;;;;;;2.72;0.80;;;;;;;;;;5289700;26;20161;-57
2024/04/17 09:23:40;;;;;;;2.17;0.68;;;;;;;;;;5304731;26;20133;-52
2024/04/17 09:26:19;;;;;;;8.07;1.05;;;;;;;;;;5327279;26;20165;-52
2024/04/17 09:28:49;;;;;;;2.08;0.40;;;;;;;;;;5297957;26;20140;-56
2024/04/17 09:31:18;;;;;;;3.90;1.00;;;;;;;;;;5268614;26;20512;-57
2024/04/17 09:33:46;;;;;;;1.05;0.45;;;;;;;;;;5314723;26;20134;-56
2024/04/17 09:36:17;;;;;;;2.03;0.60;;;;;;;;;;5316159;26;20451;-58
2024/04/17 09:38:44;;;;;;;1.33;0.57;;;;;;;;;;5296114;26;20151;-56
2024/04/17 09:41:11;;;;;;;1.98;0.50;;;;;;;;;;5296663;26;20153;-53
2024/04/17 09:43:45;;;;;;;1.30;0.50;;;;;;;;;;5316379;26;20216;-53
2024/04/17 09:46:16;;;;;;;2.97;0.70;;;;;;;;;;5293965;26;20196;-52
2024/04/17 09:48:53;;;;;;;1.38;0.70;;;;;;;;;;5286953;26;20170;-56
2024/04/17 09:51:24;;;;;;;1.58;0.70;;;;;;;;;;5286472;26;20570;-60
2024/04/17 09:54:02;;;;;;;0.77;0.40;;;;;;;;;;5288293;26;20148;-59
2024/04/17 09:56:30;;;;;;;0.95;0.65;;;;;;;;;;5327362;26;20174;-58
2024/04/17 09:59:00;;;;;;;1.45;0.60;;;;;;;;;;5295248;26;20185;-58
2024/04/17 10:01:29;;;;;;;1.15;0.47;;;;;;;;;;5325590;26;20514;-60
2024/04/17 10:03:58;;;;;;;0.90;0.50;;;;;;;;;;5293066;26;20140;-54
2024/04/17 10:06:27;;;;;;;1.85;0.60;;;;;;;;;;5287994;26;20176;-57
2024/04/17 10:08:56;;;;;;;1.65;0.55;;;;;;;;;;5294139;26;20650;-56
2024/04/17 10:11:27;;;;;;;2.53;0.50;;;;;;;;;;5325282;26;20569;-57
2024/04/17 10:13:57;;;;;;;1.33;0.50;;;;;;;;;;5288098;26;20146;-57
2024/04/17 10:16:27;;;;;;;2.22;0.55;;;;;;;;;;5317583;26;20243;-57
2024/04/17 10:18:53;;;;;;;1.52;0.43;;;;;;;;;;5287729;26;20166;-54
2024/04/17 10:21:37;;;;;;;1.08;0.50;;;;;;;;;;5288571;26;20196;-53
2024/04/17 10:24:12;;;;;;;1.55;0.50;;;;;;;;;;5320030;26;20197;-51
2024/04/17 10:27:09;;;;;;;1.63;0.55;;;;;;;;;;5274880;26;20149;-49
2024/04/17 10:29:47;;;;;;;2.08;0.50;;;;;;;;;;5342806;26;20507;-51
2024/04/17 10:32:20;;;;;;;3.03;0.68;;;;;;;;;;5297907;26;20141;-51
2024/04/17 10:34:48;;;;;;;;;;;;;;;;;;5294468;26;20155;-51
2024/04/17 10:37:18;;;;;;;3.47;0.73;;;;;;;;;;5324898;26;20113;-51
2024/04/17 10:39:49;;;;;;;1.08;0.73;;;;;;;;;;5291890;26;20139;-52
2024/04/17 10:42:20;;;;;;;0.98;0.50;;;;;;;;;;5288945;26;20155;-51
2024/04/17 10:48:25;;;;;;;0.93;0.43;;;;;;;;;;5305180;26;20478;-51
2024/04/17 10:51:00;;;;;;;1.20;0.40;;;;;;;;;;5286609;26;20140;-51
2024/04/17 10:53:37;;;;;;;0.70;0.50;;;;;;;;;;5291430;26;20224;-57
2024/04/17 10:56:06;;;;;;;1.65;0.50;;;;;;;;;;5291291;26;20260;-57
2024/04/17 10:58:34;;;;;;;0.80;0.40;;;;;;;;;;5291727;26;20140;-57
2024/04/17 11:01:06;;;;;;;1.42;0.60;;;;;;;;;;5303817;26;20147;-57
2024/04/17 11:03:38;;;;;;;3.05;0.65;;;;;;;;;;5283035;26;20151;-57
2024/04/17 11:06:08;;;;;;;1.08;0.30;;;;;;;;;;5290429;26;20148;-56
2024/04/17 11:08:41;;;;;;;4.05;0.50;;;;;;;;;;5320568;26;20216;-58
2024/04/17 11:11:10;;;;;;;1.38;0.60;;;;;;;;;;5281126;26;20652;-56
2024/04/17 11:13:49;;;;;;;1.70;0.50;;;;;;;;;;5323576;26;20170;-56
2024/04/17 11:16:16;;;;;;;1.65;0.60;;;;;;;;;;5287241;26;20238;-57
2024/04/17 11:18:43;;;;;;;1.42;0.40;;;;;;;;;;5305323;26;20823;-57
2024/04/17 11:21:10;;;;;;;0.73;0.40;;;;;;;;;;5268437;26;20180;-57
2024/04/17 11:23:43;;;;;;;0.75;0.30;;;;;;;;;;5289762;26;20144;-57
2024/04/17 11:26:13;;;;;;;1.88;0.40;;;;;;;;;;5284287;26;20199;-58
2024/04/17 11:28:45;;;;;;;1.85;0.63;;;;;;;;;;5311061;26;20168;-57
2024/04/17 11:31:13;;;;;;;1.33;0.50;;;;;;;;;;5291178;26;20440;-57
2024/04/17 11:33:41;;;;;;;0.82;0.40;;;;;;;;;;5284026;26;20380;-57
2024/04/17 11:36:14;;;;;;;1.60;0.30;;;;;;;;;;5280534;26;20151;-57
2024/04/17 11:39:01;;;;;;;1.63;0.45;;;;;;;;;;5279424;26;20509;-57
2024/04/17 11:41:32;;;;;;;1.52;0.55;;;;;;;;;;5301267;26;20241;-60
2024/04/17 11:44:02;;;;;;;1.05;0.55;;;;;;;;;;5292199;26;20186;-57
2024/04/17 11:46:34;;;;;;;2.42;0.45;;;;;;;;;;5269554;26;20160;-57
2024/04/17 11:49:04;;;;;;;;;;;;;;;;;;5284322;26;20144;-57
2024/04/17 11:51:36;;;;;;;1.55;0.38;;;;;;;;;;5368946;25;20126;-57
2024/04/17 11:54:15;;;;;;;0.80;0.40;;;;;;;;;;5298814;26;20147;-57
2024/04/17 11:56:43;;;;;;;4.63;1.23;;;;;;;;;;5282074;26;20145;-59
2024/04/17 11:59:13;;;;;;;1.08;0.52;;;;;;;;;;5286320;26;20192;-56
2024/04/17 12:01:42;;;;;;;0.85;0.40;;;;;;;;;;5252081;26;20213;-56
2024/04/17 12:04:11;;;;;;;1.60;0.57;;;;;;;;;;5223715;26;20147;-57
2024/04/17 12:06:39;;;;;;;0.65;0.40;;;;;;;;;;5247382;26;20153;-59
2024/04/17 12:09:09;;;;;;;0.60;0.40;;;;;;;;;;5250195;26;20133;-58
2024/04/17 12:11:44;;;;;;;0.65;0.38;;;;;;;;;;5298201;26;20125;-59
2024/04/17 12:14:15;;;;;;;2.35;0.43;;;;;;;;;;5244444;26;20169;-57
2024/04/17 12:16:47;;;;;;;1.23;0.50;;;;;;;;;;5299699;26;20149;-58
2024/04/17 12:19:18;;;;;;;1.23;0.90;;;;;;;;;;5251178;26;20486;-58
2024/04/17 12:21:46;;;;;;;1.40;0.57;;;;;;;;;;5222826;26;20210;-56
2024/04/17 12:24:27;;;;;;;3.05;0.40;;;;;;;;;;5214277;26;20202;-58
2024/04/17 12:26:56;;;;;;;1.17;0.35;;;;;;;;;;5227904;26;20293;-57
2024/04/17 12:29:25;;;;;;;0.45;0.30;;;;;;;;;;5282377;26;20136;-56
2024/04/17 12:32:19;;;;;;;0.75;0.43;;;;;;;;;;5215256;26;20774;-58
2024/04/17 12:34:50;;;;;;;1.55;0.43;;;;;;;;;;5301548;26;20129;-57
2024/04/17 12:37:18;;;;;;;1.17;0.40;;;;;;;;;;5291704;26;20183;-58
2024/04/17 12:39:45;;;;;;;1.13;0.40;;;;;;;;;;5278191;26;20554;-57
2024/04/17 12:42:22;;;;;;;1.70;0.50;;;;;;;;;;5281141;26;20171;-57
2024/04/17 12:44:53;;;;;;;0.55;0.35;;;;;;;;;;5307809;26;20152;-58
2024/04/17 12:47:21;;;;;;;1.23;0.40;;;;;;;;;;5285528;26;20136;-57
2024/04/17 12:49:48;;;;;;;0.60;0.40;;;;;;;;;;5286763;26;20140;-58
2024/04/17 12:52:15;;;;;;;0.57;0.38;;;;;;;;;;5293654;26;20155;-58
2024/04/17 12:54:44;;;;;;;1.70;0.60;;;;;;;;;;5288357;26;20135;-57
2024/04/17 12:57:15;;;;;;;1.08;0.40;;;;;;;;;;5287317;26;20166;-53
2024/04/17 12:59:41;;;;;;;0.75;0.30;;;;;;;;;;5271148;26;20140;-50
2024/04/17 13:02:08;;;;;;;0.75;0.40;;;;;;;;;;5323343;26;20173;-57
2024/04/17 13:04:36;;;;;;;1.45;0.40;;;;;;;;;;5293909;26;20474;-57
2024/04/17 13:07:06;;;;;;;0.82;0.30;;;;;;;;;;5324617;26;20137;-57
2024/04/17 13:09:33;;;;;;;2.13;0.47;;;;;;;;;;5295100;26;20205;-58
2024/04/17 13:12:00;;;;;;;0.70;0.38;;;;;;;;;;5295160;26;20189;-58
2024/04/17 13:14:26;;;;;;;0.50;0.35;;;;;;;;;;5324457;26;20148;-57
2024/04/17 13:16:55;;;;;;;0.50;0.40;;;;;;;;;;5290876;26;20181;-52
2024/04/17 13:19:29;;;;;;;0.85;0.40;;;;;;;;;;5325953;26;20240;-50
2024/04/17 13:21:55;;;;;;;1.35;0.43;;;;;;;;;;5298489;26;20460;-51
2024/04/17 13:24:21;;;;;;;0.60;0.40;;;;;;;;;;5286662;26;20161;-50
2024/04/17 13:26:50;;;;;;;1.25;0.50;;;;;;;;;;5288874;26;20142;-50
2024/04/17 13:29:17;;;;;;;1.10;0.50;;;;;;;;;;5287731;26;20213;-48
2024/04/17 13:31:49;;;;;;;1.88;0.50;;;;;;;;;;5303857;26;20143;-50
2024/04/17 13:34:16;;;;;;;0.77;0.25;;;;;;;;;;5278697;26;20153;-50
2024/04/17 13:36:47;;;;;;;1.05;0.40;;;;;;;;;;5290409;26;20473;-51
2024/04/17 13:39:14;;;;;;;0.75;0.35;;;;;;;;;;5323747;26;20155;-52
2024/04/17 13:41:41;;;;;;;2.92;0.50;;;;;;;;;;5294987;26;20144;-50
2024/04/17 13:44:08;;;;;;;0.95;0.50;;;;;;;;;;5291483;26;20484;-50
2024/04/17 13:46:34;;;;;;;2.95;0.45;;;;;;;;;;5294952;26;20135;-51
2024/04/17 13:49:03;;;;;;;1.20;0.40;;;;;;;;;;5295053;26;20151;-47
2024/04/17 13:51:36;;;;;;;0.65;0.40;;;;;;;;;;5321787;26;20200;-50
2024/04/17 13:54:06;;;;;;;0.82;0.38;;;;;;;;;;5293822;26;20186;-50
2024/04/17 13:56:35;;;;;;;0.38;0.30;;;;;;;;;;5298746;26;20504;-51
2024/04/17 13:59:04;;;;;;;1.45;0.60;;;;;;;;;;5300563;26;20139;-50
2024/04/17 14:01:32;;;;;;;0.50;0.30;;;;;;;;;;5298843;26;20132;-51
2024/04/17 14:03:59;;;;;;;0.85;0.50;;;;;;;;;;5298139;26;20182;-51
2024/04/17 14:06:28;;;;;;;0.88;0.50;;;;;;;;;;5298209;26;20177;-51
2024/04/17 14:08:56;;;;;;;0.43;0.30;;;;;;;;;;5297748;26;20145;-50
2024/04/17 14:11:23;;;;;;;0.50;0.32;;;;;;;;;;5292829;26;20133;-50
2024/04/17 14:13:52;;;;;;;1.42;0.30;;;;;;;;;;5291902;26;20160;-49
2024/04/17 14:16:20;;;;;;;0.60;0.35;;;;;;;;;;5292022;26;20136;-50
2024/04/17 14:18:47;;;;;;;0.85;0.43;;;;;;;;;;5327099;26;20196;-50
2024/04/17 14:21:17;;;;;;;3.22;0.45;;;;;;;;;;5292515;26;20179;-50
2024/04/17 14:23:46;;;;;;;1.13;0.30;;;;;;;;;;5292374;26;20158;-51
2024/04/17 14:26:15;;;;;;;1.25;0.40;;;;;;;;;;5322685;26;20150;-50
2024/04/17 14:28:43;;;;;;;0.68;0.40;;;;;;;;;;5294295;26;20211;-51
2024/04/17 14:31:14;;;;;;;1.13;0.50;;;;;;;;;;5290764;26;20260;-59
2024/04/17 14:33:49;;;;;;;1.67;0.50;;;;;;;;;;5270897;26;20154;-56
2024/04/17 14:36:17;;;;;;;0.85;0.47;;;;;;;;;;5297473;26;20187;-56
2024/04/17 14:38:45;;;;;;;0.75;0.40;;;;;;;;;;5286812;26;20202;-56
2024/04/17 14:41:31;;;;;;;0.57;0.30;;;;;;;;;;5295427;26;20129;-57
2024/04/17 14:43:57;;;;;;;0.80;0.40;;;;;;;;;;5294952;26;20522;-57
2024/04/17 14:46:24;;;;;;;1.00;0.40;;;;;;;;;;5295315;26;20241;-55
2024/04/17 14:48:52;;;;;;;0.52;0.45;;;;;;;;;;5293623;26;20222;-56
2024/04/17 14:51:18;;;;;;;1.02;0.40;;;;;;;;;;5289820;26;20203;-57
2024/04/17 14:53:44;;;;;;;0.95;0.40;;;;;;;;;;5289599;26;20140;-56
2024/04/17 14:56:11;;;;;;;0.88;0.43;;;;;;;;;;5289731;26;20241;-58
2024/04/17 14:58:41;;;;;;;0.77;0.40;;;;;;;;;;5293436;26;20483;-56
2024/04/17 15:01:20;;;;;;;0.63;0.32;;;;;;;;;;5249478;26;20146;-57
2024/04/17 15:03:56;;;;;;;1.48;0.40;;;;;;;;;;5273245;26;20168;-56
2024/04/17 15:06:22;;;;;;;0.40;0.30;;;;;;;;;;5291086;26;20224;-56
2024/04/17 15:08:53;;;;;;;1.45;0.50;;;;;;;;;;5264854;26;20140;-55
2024/04/17 15:11:21;;;;;;;0.80;0.40;;;;;;;;;;5273623;26;20451;-56